sensor_id;sensor_type;location;lat;lon;timestamp;P1;durP1;ratioP1;P2;durP2;ratioP2
72437;SDS011;60444;43.534;-5.674;2022-08-01T00:01:47;4.80;;;1.70;;
72437;SDS011;60444;43.534;-5.674;2022-08-01T00:04:13;6.33;;;1.70;;
72437;SDS011;60444;43.534;-5.674;2022-08-01T00:06:38;7.70;;;1.90;;
72437;SDS011;60444;43.534;-5.674;2022-08-01T00:09:04;6.57;;;2.00;;
72437;SDS011;60444;43.534;-5.674;2022-08-01T00:11:29;4.47;;;1.80;;
72437;SDS011;60444;43.534;-5.674;2022-08-01T00:13:55;6.32;;;2.00;;
72437;SDS011;60444;43.534;-5.674;2022-08-01T00:16:21;4.30;;;1.30;;
72437;SDS011;60444;43.534;-5.674;2022-08-01T00:18:48;5.05;;;1.73;;
72437;SDS011;60444;43.534;-5.674;2022-08-01T00:21:17;4.68;;;1.70;;
72437;SDS011;60444;43.534;-5.674;2022-08-01T00:23:43;4.70;;;1.60;;
72437;SDS011;60444;43.534;-5.674;2022-08-01T00:26:10;7.70;;;4.80;;
72437;SDS011;60444;43.534;-5.674;2022-08-01T00:28:38;5.63;;;2.03;;
72437;SDS011;60444;43.534;-5.674;2022-08-01T00:31:03;4.75;;;1.75;;
72437;SDS011;60444;43.534;-5.674;2022-08-01T00:33:29;4.33;;;1.30;;
72437;SDS011;60444;43.534;-5.674;2022-08-01T00:35:54;4.50;;;1.47;;
72437;SDS011;60444;43.534;-5.674;2022-08-01T00:38:20;4.60;;;1.48;;
72437;SDS011;60444;43.534;-5.674;2022-08-01T00:40:46;4.65;;;1.60;;
72437;SDS011;60444;43.534;-5.674;2022-08-01T00:43:15;4.90;;;1.90;;
72437;SDS011;60444;43.534;-5.674;2022-08-01T00:45:40;5.00;;;1.60;;
72437;SDS011;60444;43.534;-5.674;2022-08-01T00:48:06;4.22;;;1.50;;
72437;SDS011;60444;43.534;-5.674;2022-08-01T00:50:32;4.70;;;1.60;;
72437;SDS011;60444;43.534;-5.674;2022-08-01T00:52:58;4.68;;;1.95;;
72437;SDS011;60444;43.534;-5.674;2022-08-01T00:55:24;4.25;;;1.50;;
72437;SDS011;60444;43.534;-5.674;2022-08-01T00:57:52;4.40;;;1.75;;
72437;SDS011;60444;43.534;-5.674;2022-08-01T01:00:17;6.33;;;1.70;;
72437;SDS011;60444;43.534;-5.674;2022-08-01T01:02:43;6.20;;;2.00;;
72437;SDS011;60444;43.534;-5.674;2022-08-01T01:05:09;4.40;;;1.50;;
72437;SDS011;60444;43.534;-5.674;2022-08-01T01:07:53;4.78;;;1.75;;
72437;SDS011;60444;43.534;-5.674;2022-08-01T01:13:23;5.93;;;2.10;;
72437;SDS011;60444;43.534;-5.674;2022-08-01T01:15:59;6.80;;;1.90;;
72437;SDS011;60444;43.534;-5.674;2022-08-01T01:18:34;5.35;;;1.70;;
72437;SDS011;60444;43.534;-5.674;2022-08-01T01:29:44;4.90;;;1.85;;
72437;SDS011;60444;43.534;-5.674;2022-08-01T01:32:14;4.53;;;1.63;;
72437;SDS011;60444;43.534;-5.674;2022-08-01T01:34:45;7.63;;;3.28;;
72437;SDS011;60444;43.534;-5.674;2022-08-01T01:37:16;5.60;;;2.20;;
72437;SDS011;60444;43.534;-5.674;2022-08-01T01:39:44;6.40;;;2.77;;
72437;SDS011;60444;43.534;-5.674;2022-08-01T01:42:13;7.38;;;3.30;;
72437;SDS011;60444;43.534;-5.674;2022-08-01T01:44:41;6.45;;;3.03;;
72437;SDS011;60444;43.534;-5.674;2022-08-01T01:47:09;6.18;;;2.30;;
72437;SDS011;60444;43.534;-5.674;2022-08-01T01:49:37;5.38;;;2.42;;
72437;SDS011;60444;43.534;-5.674;2022-08-01T01:52:06;7.57;;;3.00;;
72437;SDS011;60444;43.534;-5.674;2022-08-01T01:54:35;6.28;;;2.28;;
72437;SDS011;60444;43.534;-5.674;2022-08-01T01:57:06;8.70;;;4.70;;
72437;SDS011;60444;43.534;-5.674;2022-08-01T01:59:34;9.68;;;5.53;;
72437;SDS011;60444;43.534;-5.674;2022-08-01T02:02:04;6.97;;;3.45;;
72437;SDS011;60444;43.534;-5.674;2022-08-01T02:04:31;9.00;;;5.57;;
72437;SDS011;60444;43.534;-5.674;2022-08-01T02:07:01;11.30;;;5.90;;
72437;SDS011;60444;43.534;-5.674;2022-08-01T02:09:28;9.32;;;5.10;;
72437;SDS011;60444;43.534;-5.674;2022-08-01T02:11:56;11.15;;;6.03;;
72437;SDS011;60444;43.534;-5.674;2022-08-01T02:14:23;10.60;;;5.97;;
72437;SDS011;60444;43.534;-5.674;2022-08-01T02:16:50;11.40;;;5.97;;
72437;SDS011;60444;43.534;-5.674;2022-08-01T02:19:18;8.60;;;5.15;;
72437;SDS011;60444;43.534;-5.674;2022-08-01T02:21:52;8.20;;;4.07;;
72437;SDS011;60444;43.534;-5.674;2022-08-01T02:30:12;7.03;;;3.50;;
72437;SDS011;60444;43.534;-5.674;2022-08-01T02:32:53;7.78;;;3.10;;
72437;SDS011;60444;43.534;-5.674;2022-08-01T02:35:27;6.28;;;2.92;;
72437;SDS011;60444;43.534;-5.674;2022-08-01T02:37:55;5.63;;;2.47;;
72437;SDS011;60444;43.534;-5.674;2022-08-01T02:40:23;10.18;;;4.47;;
72437;SDS011;60444;43.534;-5.674;2022-08-01T02:42:51;6.17;;;2.73;;
72437;SDS011;60444;43.534;-5.674;2022-08-01T02:45:20;6.70;;;3.08;;
72437;SDS011;60444;43.534;-5.674;2022-08-01T02:47:49;7.07;;;3.15;;
72437;SDS011;60444;43.534;-5.674;2022-08-01T02:50:16;6.03;;;2.55;;
72437;SDS011;60444;43.534;-5.674;2022-08-01T02:52:43;7.40;;;3.00;;
72437;SDS011;60444;43.534;-5.674;2022-08-01T02:55:13;6.60;;;3.00;;
72437;SDS011;60444;43.534;-5.674;2022-08-01T02:57:41;6.05;;;2.90;;
72437;SDS011;60444;43.534;-5.674;2022-08-01T03:00:09;6.15;;;3.10;;
72437;SDS011;60444;43.534;-5.674;2022-08-01T03:02:35;6.97;;;3.00;;
72437;SDS011;60444;43.534;-5.674;2022-08-01T03:05:02;6.70;;;3.25;;
72437;SDS011;60444;43.534;-5.674;2022-08-01T03:07:29;7.60;;;3.10;;
72437;SDS011;60444;43.534;-5.674;2022-08-01T03:09:55;6.20;;;2.42;;
72437;SDS011;60444;43.534;-5.674;2022-08-01T03:12:24;6.28;;;2.10;;
72437;SDS011;60444;43.534;-5.674;2022-08-01T03:14:54;5.88;;;2.33;;
72437;SDS011;60444;43.534;-5.674;2022-08-01T03:17:22;5.80;;;2.30;;
72437;SDS011;60444;43.534;-5.674;2022-08-01T03:19:51;5.50;;;2.30;;
72437;SDS011;60444;43.534;-5.674;2022-08-01T03:22:18;8.35;;;2.63;;
72437;SDS011;60444;43.534;-5.674;2022-08-01T03:24:49;5.30;;;2.40;;
72437;SDS011;60444;43.534;-5.674;2022-08-01T03:27:18;6.78;;;2.60;;
72437;SDS011;60444;43.534;-5.674;2022-08-01T03:29:46;6.25;;;2.40;;
72437;SDS011;60444;43.534;-5.674;2022-08-01T03:32:14;6.90;;;2.60;;
72437;SDS011;60444;43.534;-5.674;2022-08-01T03:34:41;6.53;;;2.63;;
72437;SDS011;60444;43.534;-5.674;2022-08-01T03:40:28;5.88;;;2.35;;
72437;SDS011;60444;43.534;-5.674;2022-08-01T03:42:56;6.65;;;2.70;;
72437;SDS011;60444;43.534;-5.674;2022-08-01T03:45:30;6.33;;;2.50;;
72437;SDS011;60444;43.534;-5.674;2022-08-01T03:48:02;8.52;;;2.65;;
72437;SDS011;60444;43.534;-5.674;2022-08-01T03:50:33;6.78;;;2.67;;
72437;SDS011;60444;43.534;-5.674;2022-08-01T03:53:01;7.47;;;2.92;;
72437;SDS011;60444;43.534;-5.674;2022-08-01T03:55:30;8.18;;;2.90;;
72437;SDS011;60444;43.534;-5.674;2022-08-01T03:57:58;7.70;;;2.70;;
72437;SDS011;60444;43.534;-5.674;2022-08-01T04:00:25;6.00;;;2.47;;
72437;SDS011;60444;43.534;-5.674;2022-08-01T04:02:52;7.32;;;2.40;;
72437;SDS011;60444;43.534;-5.674;2022-08-01T04:05:18;5.90;;;2.50;;
72437;SDS011;60444;43.534;-5.674;2022-08-01T04:07:48;6.10;;;2.50;;
72437;SDS011;60444;43.534;-5.674;2022-08-01T04:10:21;5.83;;;2.60;;
72437;SDS011;60444;43.534;-5.674;2022-08-01T04:12:48;5.80;;;2.40;;
72437;SDS011;60444;43.534;-5.674;2022-08-01T04:15:14;5.47;;;2.38;;
72437;SDS011;60444;43.534;-5.674;2022-08-01T04:17:39;7.47;;;2.90;;
72437;SDS011;60444;43.534;-5.674;2022-08-01T04:20:05;6.50;;;2.55;;
72437;SDS011;60444;43.534;-5.674;2022-08-01T04:22:31;6.95;;;2.50;;
72437;SDS011;60444;43.534;-5.674;2022-08-01T04:24:58;6.17;;;3.17;;
72437;SDS011;60444;43.534;-5.674;2022-08-01T04:27:32;7.35;;;3.13;;
72437;SDS011;60444;43.534;-5.674;2022-08-01T04:30:01;5.93;;;2.38;;
72437;SDS011;60444;43.534;-5.674;2022-08-01T04:32:28;6.30;;;2.80;;
72437;SDS011;60444;43.534;-5.674;2022-08-01T04:34:59;5.43;;;2.65;;
72437;SDS011;60444;43.534;-5.674;2022-08-01T04:37:31;5.63;;;2.70;;
72437;SDS011;60444;43.534;-5.674;2022-08-01T04:39:57;7.82;;;2.53;;
72437;SDS011;60444;43.534;-5.674;2022-08-01T04:42:24;5.30;;;2.20;;
72437;SDS011;60444;43.534;-5.674;2022-08-01T04:44:50;5.87;;;2.17;;
72437;SDS011;60444;43.534;-5.674;2022-08-01T04:47:16;5.10;;;1.85;;
72437;SDS011;60444;43.534;-5.674;2022-08-01T04:49:42;5.40;;;1.95;;
72437;SDS011;60444;43.534;-5.674;2022-08-01T04:52:11;5.72;;;2.10;;
72437;SDS011;60444;43.534;-5.674;2022-08-01T04:54:37;5.63;;;2.47;;
72437;SDS011;60444;43.534;-5.674;2022-08-01T04:57:03;4.57;;;1.50;;
72437;SDS011;60444;43.534;-5.674;2022-08-01T04:59:30;5.30;;;1.80;;
72437;SDS011;60444;43.534;-5.674;2022-08-01T05:04:39;6.23;;;2.50;;
72437;SDS011;60444;43.534;-5.674;2022-08-01T05:07:06;5.45;;;2.10;;
72437;SDS011;60444;43.534;-5.674;2022-08-01T05:09:32;5.35;;;2.50;;
72437;SDS011;60444;43.534;-5.674;2022-08-01T05:12:02;6.25;;;2.10;;
72437;SDS011;60444;43.534;-5.674;2022-08-01T05:14:29;5.30;;;2.35;;
72437;SDS011;60444;43.534;-5.674;2022-08-01T05:17:02;6.73;;;2.37;;
72437;SDS011;60444;43.534;-5.674;2022-08-01T05:19:32;6.40;;;2.38;;
72437;SDS011;60444;43.534;-5.674;2022-08-01T05:21:59;5.60;;;2.70;;
72437;SDS011;60444;43.534;-5.674;2022-08-01T05:24:28;4.75;;;2.08;;
72437;SDS011;60444;43.534;-5.674;2022-08-01T05:26:55;6.03;;;2.17;;
72437;SDS011;60444;43.534;-5.674;2022-08-01T05:29:22;5.73;;;2.07;;
72437;SDS011;60444;43.534;-5.674;2022-08-01T05:31:49;5.78;;;2.10;;
72437;SDS011;60444;43.534;-5.674;2022-08-01T05:34:15;5.53;;;2.25;;
72437;SDS011;60444;43.534;-5.674;2022-08-01T05:36:40;6.07;;;2.20;;
72437;SDS011;60444;43.534;-5.674;2022-08-01T05:39:06;5.90;;;2.30;;
72437;SDS011;60444;43.534;-5.674;2022-08-01T05:41:32;5.67;;;2.10;;
72437;SDS011;60444;43.534;-5.674;2022-08-01T05:43:57;5.30;;;2.37;;
72437;SDS011;60444;43.534;-5.674;2022-08-01T05:46:23;5.77;;;2.20;;
72437;SDS011;60444;43.534;-5.674;2022-08-01T05:48:48;5.32;;;2.30;;
72437;SDS011;60444;43.534;-5.674;2022-08-01T05:51:14;6.90;;;2.40;;
72437;SDS011;60444;43.534;-5.674;2022-08-01T05:53:40;5.80;;;2.50;;
72437;SDS011;60444;43.534;-5.674;2022-08-01T05:56:05;6.15;;;2.40;;
72437;SDS011;60444;43.534;-5.674;2022-08-01T05:58:31;7.23;;;2.47;;
72437;SDS011;60444;43.534;-5.674;2022-08-01T06:00:57;5.82;;;2.55;;
72437;SDS011;60444;43.534;-5.674;2022-08-01T06:03:23;5.93;;;1.90;;
72437;SDS011;60444;43.534;-5.674;2022-08-01T06:05:51;4.87;;;1.77;;
72437;SDS011;60444;43.534;-5.674;2022-08-01T06:08:16;5.28;;;1.90;;
72437;SDS011;60444;43.534;-5.674;2022-08-01T06:10:42;5.35;;;2.00;;
72437;SDS011;60444;43.534;-5.674;2022-08-01T06:13:08;5.60;;;1.97;;
72437;SDS011;60444;43.534;-5.674;2022-08-01T06:15:33;6.22;;;2.40;;
72437;SDS011;60444;43.534;-5.674;2022-08-01T06:17:59;5.27;;;1.90;;
72437;SDS011;60444;43.534;-5.674;2022-08-01T06:20:25;4.75;;;2.00;;
72437;SDS011;60444;43.534;-5.674;2022-08-01T06:22:51;6.05;;;2.38;;
72437;SDS011;60444;43.534;-5.674;2022-08-01T06:25:17;5.37;;;1.97;;
72437;SDS011;60444;43.534;-5.674;2022-08-01T06:27:44;4.80;;;1.70;;
72437;SDS011;60444;43.534;-5.674;2022-08-01T06:30:09;5.40;;;1.90;;
72437;SDS011;60444;43.534;-5.674;2022-08-01T06:32:35;5.35;;;1.90;;
72437;SDS011;60444;43.534;-5.674;2022-08-01T06:35:01;5.50;;;2.47;;
72437;SDS011;60444;43.534;-5.674;2022-08-01T06:37:31;6.30;;;2.50;;
72437;SDS011;60444;43.534;-5.674;2022-08-01T06:40:01;5.87;;;2.10;;
72437;SDS011;60444;43.534;-5.674;2022-08-01T06:42:30;5.32;;;2.22;;
72437;SDS011;60444;43.534;-5.674;2022-08-01T06:45:00;5.32;;;2.22;;
72437;SDS011;60444;43.534;-5.674;2022-08-01T06:47:31;6.32;;;2.13;;
72437;SDS011;60444;43.534;-5.674;2022-08-01T06:49:56;7.55;;;1.92;;
72437;SDS011;60444;43.534;-5.674;2022-08-01T06:52:22;7.77;;;2.13;;
72437;SDS011;60444;43.534;-5.674;2022-08-01T06:54:48;5.80;;;2.10;;
72437;SDS011;60444;43.534;-5.674;2022-08-01T06:57:13;5.50;;;2.00;;
72437;SDS011;60444;43.534;-5.674;2022-08-01T06:59:39;5.78;;;2.10;;
72437;SDS011;60444;43.534;-5.674;2022-08-01T07:02:05;5.97;;;2.40;;
72437;SDS011;60444;43.534;-5.674;2022-08-01T07:04:31;5.10;;;2.20;;
72437;SDS011;60444;43.534;-5.674;2022-08-01T07:06:57;5.20;;;2.10;;
72437;SDS011;60444;43.534;-5.674;2022-08-01T07:09:22;5.20;;;2.13;;
72437;SDS011;60444;43.534;-5.674;2022-08-01T07:11:48;7.33;;;2.43;;
72437;SDS011;60444;43.534;-5.674;2022-08-01T07:14:15;5.28;;;2.00;;
72437;SDS011;60444;43.534;-5.674;2022-08-01T07:16:41;6.45;;;2.10;;
72437;SDS011;60444;43.534;-5.674;2022-08-01T07:19:07;5.40;;;2.27;;
72437;SDS011;60444;43.534;-5.674;2022-08-01T07:21:33;5.15;;;2.15;;
72437;SDS011;60444;43.534;-5.674;2022-08-01T07:23:58;6.63;;;2.70;;
72437;SDS011;60444;43.534;-5.674;2022-08-01T07:26:24;6.27;;;2.10;;
72437;SDS011;60444;43.534;-5.674;2022-08-01T07:28:51;6.05;;;2.30;;
72437;SDS011;60444;43.534;-5.674;2022-08-01T07:31:19;7.53;;;2.97;;
72437;SDS011;60444;43.534;-5.674;2022-08-01T07:33:46;6.47;;;2.50;;
72437;SDS011;60444;43.534;-5.674;2022-08-01T07:36:11;7.78;;;2.60;;
72437;SDS011;60444;43.534;-5.674;2022-08-01T07:38:37;8.45;;;3.05;;
72437;SDS011;60444;43.534;-5.674;2022-08-01T07:41:03;8.20;;;2.80;;
72437;SDS011;60444;43.534;-5.674;2022-08-01T07:43:28;8.13;;;3.07;;
72437;SDS011;60444;43.534;-5.674;2022-08-01T07:45:54;6.15;;;2.60;;
72437;SDS011;60444;43.534;-5.674;2022-08-01T07:48:20;6.77;;;2.50;;
72437;SDS011;60444;43.534;-5.674;2022-08-01T07:50:51;7.50;;;3.03;;
72437;SDS011;60444;43.534;-5.674;2022-08-01T07:53:16;6.82;;;2.83;;
72437;SDS011;60444;43.534;-5.674;2022-08-01T07:55:42;8.40;;;2.53;;
72437;SDS011;60444;43.534;-5.674;2022-08-01T07:58:08;7.50;;;2.67;;
72437;SDS011;60444;43.534;-5.674;2022-08-01T08:00:33;6.90;;;2.60;;
72437;SDS011;60444;43.534;-5.674;2022-08-01T08:02:59;7.90;;;3.20;;
72437;SDS011;60444;43.534;-5.674;2022-08-01T08:05:25;8.20;;;3.10;;
72437;SDS011;60444;43.534;-5.674;2022-08-01T08:07:54;6.97;;;3.03;;
72437;SDS011;60444;43.534;-5.674;2022-08-01T08:10:20;6.93;;;3.15;;
72437;SDS011;60444;43.534;-5.674;2022-08-01T08:12:45;7.10;;;2.77;;
72437;SDS011;60444;43.534;-5.674;2022-08-01T08:15:12;6.38;;;2.60;;
72437;SDS011;60444;43.534;-5.674;2022-08-01T08:17:38;9.48;;;3.17;;
72437;SDS011;60444;43.534;-5.674;2022-08-01T08:20:07;9.05;;;2.70;;
72437;SDS011;60444;43.534;-5.674;2022-08-01T08:22:34;8.37;;;3.03;;
72437;SDS011;60444;43.534;-5.674;2022-08-01T08:24:59;6.32;;;2.67;;
72437;SDS011;60444;43.534;-5.674;2022-08-01T08:27:26;7.35;;;3.10;;
72437;SDS011;60444;43.534;-5.674;2022-08-01T08:29:51;8.23;;;2.70;;
72437;SDS011;60444;43.534;-5.674;2022-08-01T08:32:17;7.50;;;3.17;;
72437;SDS011;60444;43.534;-5.674;2022-08-01T08:34:42;7.40;;;3.27;;
72437;SDS011;60444;43.534;-5.674;2022-08-01T08:37:11;8.73;;;2.83;;
72437;SDS011;60444;43.534;-5.674;2022-08-01T08:39:37;8.60;;;3.30;;
72437;SDS011;60444;43.534;-5.674;2022-08-01T08:42:06;9.20;;;3.23;;
72437;SDS011;60444;43.534;-5.674;2022-08-01T08:44:33;8.32;;;2.83;;
72437;SDS011;60444;43.534;-5.674;2022-08-01T08:46:59;7.00;;;3.07;;
72437;SDS011;60444;43.534;-5.674;2022-08-01T08:49:30;7.60;;;2.72;;
72437;SDS011;60444;43.534;-5.674;2022-08-01T08:51:57;8.75;;;2.88;;
72437;SDS011;60444;43.534;-5.674;2022-08-01T08:54:24;7.82;;;3.30;;
72437;SDS011;60444;43.534;-5.674;2022-08-01T08:56:52;7.57;;;3.50;;
72437;SDS011;60444;43.534;-5.674;2022-08-01T08:59:18;8.10;;;3.70;;
72437;SDS011;60444;43.534;-5.674;2022-08-01T09:01:45;7.40;;;2.92;;
72437;SDS011;60444;43.534;-5.674;2022-08-01T09:04:11;9.77;;;3.58;;
72437;SDS011;60444;43.534;-5.674;2022-08-01T09:06:37;7.78;;;3.47;;
72437;SDS011;60444;43.534;-5.674;2022-08-01T09:09:03;7.30;;;3.30;;
72437;SDS011;60444;43.534;-5.674;2022-08-01T09:11:30;7.93;;;3.38;;
72437;SDS011;60444;43.534;-5.674;2022-08-01T09:14:07;7.10;;;2.97;;
72437;SDS011;60444;43.534;-5.674;2022-08-01T09:16:35;7.35;;;3.47;;
72437;SDS011;60444;43.534;-5.674;2022-08-01T09:19:11;8.27;;;3.45;;
72437;SDS011;60444;43.534;-5.674;2022-08-01T09:21:55;8.33;;;3.47;;
72437;SDS011;60444;43.534;-5.674;2022-08-01T09:24:22;10.38;;;3.53;;
72437;SDS011;60444;43.534;-5.674;2022-08-01T09:26:49;13.02;;;7.13;;
72437;SDS011;60444;43.534;-5.674;2022-08-01T09:29:33;9.77;;;3.60;;
72437;SDS011;60444;43.534;-5.674;2022-08-01T09:32:01;9.10;;;3.60;;
72437;SDS011;60444;43.534;-5.674;2022-08-01T09:34:31;9.45;;;3.83;;
72437;SDS011;60444;43.534;-5.674;2022-08-01T09:36:58;8.55;;;3.65;;
72437;SDS011;60444;43.534;-5.674;2022-08-01T09:41:52;12.30;;;4.90;;
72437;SDS011;60444;43.534;-5.674;2022-08-01T09:44:41;8.67;;;4.13;;
72437;SDS011;60444;43.534;-5.674;2022-08-01T09:47:08;10.52;;;4.05;;
72437;SDS011;60444;43.534;-5.674;2022-08-01T09:49:36;7.88;;;3.92;;
72437;SDS011;60444;43.534;-5.674;2022-08-01T09:52:17;9.77;;;4.32;;
72437;SDS011;60444;43.534;-5.674;2022-08-01T09:54:51;10.48;;;4.32;;
72437;SDS011;60444;43.534;-5.674;2022-08-01T09:57:19;10.90;;;4.33;;
72437;SDS011;60444;43.534;-5.674;2022-08-01T09:59:46;9.02;;;4.18;;
72437;SDS011;60444;43.534;-5.674;2022-08-01T10:02:26;9.13;;;3.83;;
72437;SDS011;60444;43.534;-5.674;2022-08-01T10:04:52;8.02;;;4.20;;
72437;SDS011;60444;43.534;-5.674;2022-08-01T10:07:18;11.73;;;4.25;;
72437;SDS011;60444;43.534;-5.674;2022-08-01T10:09:45;10.00;;;4.50;;
72437;SDS011;60444;43.534;-5.674;2022-08-01T10:12:13;10.70;;;4.35;;
72437;SDS011;60444;43.534;-5.674;2022-08-01T10:14:41;11.05;;;4.30;;
72437;SDS011;60444;43.534;-5.674;2022-08-01T10:17:08;10.38;;;4.72;;
72437;SDS011;60444;43.534;-5.674;2022-08-01T10:19:37;9.57;;;4.35;;
72437;SDS011;60444;43.534;-5.674;2022-08-01T10:22:08;9.67;;;4.30;;
72437;SDS011;60444;43.534;-5.674;2022-08-01T10:24:36;11.93;;;4.57;;
72437;SDS011;60444;43.534;-5.674;2022-08-01T10:27:05;10.15;;;4.78;;
72437;SDS011;60444;43.534;-5.674;2022-08-01T10:32:16;13.68;;;4.78;;
72437;SDS011;60444;43.534;-5.674;2022-08-01T10:34:43;11.23;;;4.70;;
72437;SDS011;60444;43.534;-5.674;2022-08-01T10:37:09;9.13;;;5.03;;
72437;SDS011;60444;43.534;-5.674;2022-08-01T10:39:35;10.88;;;4.90;;
72437;SDS011;60444;43.534;-5.674;2022-08-01T10:42:05;9.68;;;4.40;;
72437;SDS011;60444;43.534;-5.674;2022-08-01T10:44:34;10.98;;;4.78;;
72437;SDS011;60444;43.534;-5.674;2022-08-01T10:47:06;9.60;;;4.50;;
72437;SDS011;60444;43.534;-5.674;2022-08-01T10:49:36;10.43;;;4.47;;
72437;SDS011;60444;43.534;-5.674;2022-08-01T10:52:13;11.98;;;4.38;;
72437;SDS011;60444;43.534;-5.674;2022-08-01T10:54:40;10.00;;;4.22;;
72437;SDS011;60444;43.534;-5.674;2022-08-01T10:57:05;10.03;;;4.20;;
72437;SDS011;60444;43.534;-5.674;2022-08-01T10:59:32;9.88;;;4.15;;
72437;SDS011;60444;43.534;-5.674;2022-08-01T11:02:02;10.45;;;4.68;;
72437;SDS011;60444;43.534;-5.674;2022-08-01T11:05:12;9.93;;;4.63;;
72437;SDS011;60444;43.534;-5.674;2022-08-01T11:07:24;9.40;;;4.45;;
72437;SDS011;60444;43.534;-5.674;2022-08-01T11:13:03;13.48;;;4.45;;
72437;SDS011;60444;43.534;-5.674;2022-08-01T11:15:32;9.75;;;3.95;;
72437;SDS011;60444;43.534;-5.674;2022-08-01T11:18:03;10.38;;;4.38;;
72437;SDS011;60444;43.534;-5.674;2022-08-01T11:20:58;9.25;;;4.38;;
72437;SDS011;60444;43.534;-5.674;2022-08-01T11:23:26;10.37;;;4.27;;
72437;SDS011;60444;43.534;-5.674;2022-08-01T11:28:21;7.60;;;4.10;;
72437;SDS011;60444;43.534;-5.674;2022-08-01T11:30:53;8.32;;;3.85;;
72437;SDS011;60444;43.534;-5.674;2022-08-01T11:38:38;9.68;;;4.18;;
72437;SDS011;60444;43.534;-5.674;2022-08-01T11:41:12;7.67;;;3.40;;
72437;SDS011;60444;43.534;-5.674;2022-08-01T11:52:18;9.88;;;4.43;;
72437;SDS011;60444;43.534;-5.674;2022-08-01T11:54:54;9.33;;;4.43;;
72437;SDS011;60444;43.534;-5.674;2022-08-01T11:57:20;8.52;;;4.18;;
72437;SDS011;60444;43.534;-5.674;2022-08-01T11:59:54;8.57;;;4.22;;
72437;SDS011;60444;43.534;-5.674;2022-08-01T12:02:22;10.15;;;4.40;;
72437;SDS011;60444;43.534;-5.674;2022-08-01T12:04:58;11.35;;;3.97;;
72437;SDS011;60444;43.534;-5.674;2022-08-01T12:07:25;9.60;;;4.10;;
72437;SDS011;60444;43.534;-5.674;2022-08-01T12:09:59;10.40;;;4.75;;
72437;SDS011;60444;43.534;-5.674;2022-08-01T12:12:26;8.98;;;4.07;;
72437;SDS011;60444;43.534;-5.674;2022-08-01T12:14:59;10.48;;;4.40;;
72437;SDS011;60444;43.534;-5.674;2022-08-01T12:17:31;11.73;;;4.63;;
72437;SDS011;60444;43.534;-5.674;2022-08-01T12:20:01;9.20;;;4.20;;
72437;SDS011;60444;43.534;-5.674;2022-08-01T12:22:29;9.23;;;4.25;;
72437;SDS011;60444;43.534;-5.674;2022-08-01T12:24:55;9.52;;;4.53;;
72437;SDS011;60444;43.534;-5.674;2022-08-01T12:27:31;12.40;;;4.53;;
72437;SDS011;60444;43.534;-5.674;2022-08-01T12:29:57;9.10;;;4.23;;
72437;SDS011;60444;43.534;-5.674;2022-08-01T12:32:33;10.57;;;4.53;;
72437;SDS011;60444;43.534;-5.674;2022-08-01T12:37:36;10.15;;;4.97;;
72437;SDS011;60444;43.534;-5.674;2022-08-01T12:40:13;9.40;;;5.17;;
72437;SDS011;60444;43.534;-5.674;2022-08-01T12:42:41;6.82;;;3.78;;
72437;SDS011;60444;43.534;-5.674;2022-08-01T12:45:09;9.10;;;4.57;;
72437;SDS011;60444;43.534;-5.674;2022-08-01T12:47:37;8.98;;;4.10;;
72437;SDS011;60444;43.534;-5.674;2022-08-01T12:50:08;10.13;;;4.93;;
72437;SDS011;60444;43.534;-5.674;2022-08-01T12:52:39;9.47;;;4.63;;
72437;SDS011;60444;43.534;-5.674;2022-08-01T12:55:06;11.23;;;5.25;;
72437;SDS011;60444;43.534;-5.674;2022-08-01T12:57:33;11.15;;;4.57;;
72437;SDS011;60444;43.534;-5.674;2022-08-01T13:00:16;22.02;;;5.10;;
72437;SDS011;60444;43.534;-5.674;2022-08-01T13:02:50;10.13;;;4.70;;
72437;SDS011;60444;43.534;-5.674;2022-08-01T13:05:26;12.50;;;5.67;;
72437;SDS011;60444;43.534;-5.674;2022-08-01T13:07:52;10.93;;;4.70;;
72437;SDS011;60444;43.534;-5.674;2022-08-01T13:10:28;10.38;;;5.32;;
72437;SDS011;60444;43.534;-5.674;2022-08-01T13:12:55;14.02;;;5.00;;
72437;SDS011;60444;43.534;-5.674;2022-08-01T13:18:00;9.77;;;5.23;;
72437;SDS011;60444;43.534;-5.674;2022-08-01T13:20:46;11.10;;;5.25;;
72437;SDS011;60444;43.534;-5.674;2022-08-01T13:28:25;9.82;;;4.15;;
72437;SDS011;60444;43.534;-5.674;2022-08-01T13:33:39;14.45;;;5.07;;
72437;SDS011;60444;43.534;-5.674;2022-08-01T13:36:10;9.75;;;4.43;;
72437;SDS011;60444;43.534;-5.674;2022-08-01T13:38:36;10.37;;;5.03;;
72437;SDS011;60444;43.534;-5.674;2022-08-01T13:41:20;12.45;;;4.50;;
72437;SDS011;60444;43.534;-5.674;2022-08-01T13:43:53;9.38;;;4.85;;
72437;SDS011;60444;43.534;-5.674;2022-08-01T13:46:20;17.27;;;4.90;;
72437;SDS011;60444;43.534;-5.674;2022-08-01T13:48:45;12.20;;;5.32;;
72437;SDS011;60444;43.534;-5.674;2022-08-01T13:51:11;11.57;;;5.20;;
72437;SDS011;60444;43.534;-5.674;2022-08-01T13:53:36;10.93;;;5.00;;
72437;SDS011;60444;43.534;-5.674;2022-08-01T13:56:02;11.27;;;4.63;;
72437;SDS011;60444;43.534;-5.674;2022-08-01T13:58:28;10.98;;;4.25;;
72437;SDS011;60444;43.534;-5.674;2022-08-01T14:00:54;10.23;;;4.37;;
72437;SDS011;60444;43.534;-5.674;2022-08-01T14:03:20;11.07;;;4.70;;
72437;SDS011;60444;43.534;-5.674;2022-08-01T14:05:46;10.88;;;4.68;;
72437;SDS011;60444;43.534;-5.674;2022-08-01T14:08:12;11.07;;;4.93;;
72437;SDS011;60444;43.534;-5.674;2022-08-01T14:10:38;9.43;;;4.55;;
72437;SDS011;60444;43.534;-5.674;2022-08-01T14:13:03;12.20;;;4.77;;
72437;SDS011;60444;43.534;-5.674;2022-08-01T14:15:30;10.27;;;4.60;;
72437;SDS011;60444;43.534;-5.674;2022-08-01T14:17:57;11.60;;;4.20;;
72437;SDS011;60444;43.534;-5.674;2022-08-01T14:20:23;10.93;;;4.20;;
72437;SDS011;60444;43.534;-5.674;2022-08-01T14:22:48;11.07;;;4.47;;
72437;SDS011;60444;43.534;-5.674;2022-08-01T14:25:14;10.45;;;4.18;;
72437;SDS011;60444;43.534;-5.674;2022-08-01T14:27:40;13.97;;;5.00;;
72437;SDS011;60444;43.534;-5.674;2022-08-01T14:30:07;12.65;;;4.30;;
72437;SDS011;60444;43.534;-5.674;2022-08-01T14:32:33;13.00;;;4.63;;
72437;SDS011;60444;43.534;-5.674;2022-08-01T14:35:00;11.27;;;3.97;;
72437;SDS011;60444;43.534;-5.674;2022-08-01T14:37:29;13.30;;;4.07;;
72437;SDS011;60444;43.534;-5.674;2022-08-01T14:39:56;10.23;;;4.20;;
72437;SDS011;60444;43.534;-5.674;2022-08-01T14:42:22;7.93;;;4.25;;
72437;SDS011;60444;43.534;-5.674;2022-08-01T14:44:48;10.13;;;4.87;;
72437;SDS011;60444;43.534;-5.674;2022-08-01T14:47:13;12.82;;;4.35;;
72437;SDS011;60444;43.534;-5.674;2022-08-01T14:49:39;12.60;;;4.07;;
72437;SDS011;60444;43.534;-5.674;2022-08-01T14:52:05;11.23;;;4.38;;
72437;SDS011;60444;43.534;-5.674;2022-08-01T14:54:31;9.13;;;3.83;;
72437;SDS011;60444;43.534;-5.674;2022-08-01T14:56:56;12.73;;;4.40;;
72437;SDS011;60444;43.534;-5.674;2022-08-01T14:59:22;9.83;;;4.10;;
72437;SDS011;60444;43.534;-5.674;2022-08-01T15:01:47;13.27;;;4.20;;
72437;SDS011;60444;43.534;-5.674;2022-08-01T15:04:13;12.07;;;4.70;;
72437;SDS011;60444;43.534;-5.674;2022-08-01T15:06:39;10.85;;;3.65;;
72437;SDS011;60444;43.534;-5.674;2022-08-01T15:09:04;12.57;;;4.13;;
72437;SDS011;60444;43.534;-5.674;2022-08-01T15:11:30;8.97;;;3.83;;
72437;SDS011;60444;43.534;-5.674;2022-08-01T15:13:55;8.88;;;3.92;;
72437;SDS011;60444;43.534;-5.674;2022-08-01T15:16:47;10.60;;;4.32;;
72437;SDS011;60444;43.534;-5.674;2022-08-01T15:19:13;9.87;;;3.90;;
72437;SDS011;60444;43.534;-5.674;2022-08-01T15:21:39;9.75;;;4.10;;
72437;SDS011;60444;43.534;-5.674;2022-08-01T15:24:05;10.50;;;3.75;;
72437;SDS011;60444;43.534;-5.674;2022-08-01T15:26:31;11.77;;;3.60;;
72437;SDS011;60444;43.534;-5.674;2022-08-01T15:28:57;9.07;;;3.40;;
72437;SDS011;60444;43.534;-5.674;2022-08-01T15:31:22;9.93;;;4.10;;
72437;SDS011;60444;43.534;-5.674;2022-08-01T15:33:48;9.60;;;3.80;;
72437;SDS011;60444;43.534;-5.674;2022-08-01T15:36:13;7.67;;;3.53;;
72437;SDS011;60444;43.534;-5.674;2022-08-01T15:38:39;9.27;;;3.90;;